sensor_id;sensor_type;location;lat;lon;timestamp;P1;durP1;ratioP1;P2;durP2;ratioP2
19830;SDS011;10076;52.008;4.708;2022-08-21T00:01:13;3.08;;;2.10;;
19830;SDS011;10076;52.008;4.708;2022-08-21T00:03:41;3.05;;;1.88;;
19830;SDS011;10076;52.008;4.708;2022-08-21T00:06:06;5.53;;;1.90;;
19830;SDS011;10076;52.008;4.708;2022-08-21T00:08:32;2.80;;;2.10;;
19830;SDS011;10076;52.008;4.708;2022-08-21T00:10:57;2.13;;;1.80;;
19830;SDS011;10076;52.008;4.708;2022-08-21T00:13:22;5.53;;;1.92;;
19830;SDS011;10076;52.008;4.708;2022-08-21T00:15:48;3.75;;;2.20;;
19830;SDS011;10076;52.008;4.708;2022-08-21T00:18:15;3.40;;;2.15;;
19830;SDS011;10076;52.008;4.708;2022-08-21T00:20:42;3.55;;;2.10;;
19830;SDS011;10076;52.008;4.708;2022-08-21T00:23:08;5.55;;;2.30;;
19830;SDS011;10076;52.008;4.708;2022-08-21T00:25:34;4.60;;;2.10;;
19830;SDS011;10076;52.008;4.708;2022-08-21T00:28:00;3.88;;;1.90;;
19830;SDS011;10076;52.008;4.708;2022-08-21T00:30:27;3.25;;;1.95;;
19830;SDS011;10076;52.008;4.708;2022-08-21T00:32:54;2.55;;;1.92;;
19830;SDS011;10076;52.008;4.708;2022-08-21T00:35:22;8.00;;;2.28;;
19830;SDS011;10076;52.008;4.708;2022-08-21T00:37:50;4.35;;;2.17;;
19830;SDS011;10076;52.008;4.708;2022-08-21T00:40:17;5.78;;;2.40;;
19830;SDS011;10076;52.008;4.708;2022-08-21T00:42:45;4.30;;;2.15;;
19830;SDS011;10076;52.008;4.708;2022-08-21T00:45:10;3.58;;;2.00;;
19830;SDS011;10076;52.008;4.708;2022-08-21T00:47:37;3.83;;;2.17;;
19830;SDS011;10076;52.008;4.708;2022-08-21T00:50:03;3.42;;;2.00;;
19830;SDS011;10076;52.008;4.708;2022-08-21T00:52:31;5.22;;;2.17;;
19830;SDS011;10076;52.008;4.708;2022-08-21T00:54:59;3.63;;;2.30;;
19830;SDS011;10076;52.008;4.708;2022-08-21T00:57:44;4.57;;;2.30;;
19830;SDS011;10076;52.008;4.708;2022-08-21T01:00:15;3.45;;;2.33;;
19830;SDS011;10076;52.008;4.708;2022-08-21T01:02:43;6.68;;;2.63;;
19830;SDS011;10076;52.008;4.708;2022-08-21T01:05:09;3.13;;;2.13;;
19830;SDS011;10076;52.008;4.708;2022-08-21T01:07:35;7.13;;;2.30;;
19830;SDS011;10076;52.008;4.708;2022-08-21T01:10:01;3.17;;;2.00;;
19830;SDS011;10076;52.008;4.708;2022-08-21T01:12:27;3.65;;;2.10;;
19830;SDS011;10076;52.008;4.708;2022-08-21T01:14:52;3.35;;;2.40;;
19830;SDS011;10076;52.008;4.708;2022-08-21T01:17:18;3.92;;;2.28;;
19830;SDS011;10076;52.008;4.708;2022-08-21T01:19:45;4.10;;;2.40;;
19830;SDS011;10076;52.008;4.708;2022-08-21T01:22:10;6.22;;;2.30;;
19830;SDS011;10076;52.008;4.708;2022-08-21T01:24:36;5.65;;;1.90;;
19830;SDS011;10076;52.008;4.708;2022-08-21T01:27:02;4.88;;;2.50;;
19830;SDS011;10076;52.008;4.708;2022-08-21T01:32:32;6.00;;;2.38;;
19830;SDS011;10076;52.008;4.708;2022-08-21T01:34:58;5.47;;;2.40;;
19830;SDS011;10076;52.008;4.708;2022-08-21T01:37:24;3.92;;;2.55;;
19830;SDS011;10076;52.008;4.708;2022-08-21T01:39:49;5.93;;;2.90;;
19830;SDS011;10076;52.008;4.708;2022-08-21T01:42:14;4.40;;;2.22;;
19830;SDS011;10076;52.008;4.708;2022-08-21T01:44:40;3.78;;;2.30;;
19830;SDS011;10076;52.008;4.708;2022-08-21T01:47:08;6.03;;;2.53;;
19830;SDS011;10076;52.008;4.708;2022-08-21T01:49:37;3.92;;;2.22;;
19830;SDS011;10076;52.008;4.708;2022-08-21T01:52:03;5.63;;;2.53;;
19830;SDS011;10076;52.008;4.708;2022-08-21T01:54:29;4.60;;;2.20;;
19830;SDS011;10076;52.008;4.708;2022-08-21T01:56:55;6.53;;;2.55;;
19830;SDS011;10076;52.008;4.708;2022-08-21T01:59:21;4.85;;;2.53;;
19830;SDS011;10076;52.008;4.708;2022-08-21T02:01:48;4.95;;;2.20;;
19830;SDS011;10076;52.008;4.708;2022-08-21T02:04:14;4.03;;;2.00;;
19830;SDS011;10076;52.008;4.708;2022-08-21T02:06:40;4.00;;;2.20;;
19830;SDS011;10076;52.008;4.708;2022-08-21T02:09:07;5.43;;;2.65;;
19830;SDS011;10076;52.008;4.708;2022-08-21T02:11:34;7.53;;;2.55;;
19830;SDS011;10076;52.008;4.708;2022-08-21T02:14:00;3.80;;;2.30;;
19830;SDS011;10076;52.008;4.708;2022-08-21T02:16:26;8.20;;;2.65;;
19830;SDS011;10076;52.008;4.708;2022-08-21T02:18:52;3.58;;;2.20;;
19830;SDS011;10076;52.008;4.708;2022-08-21T02:21:17;6.13;;;2.22;;
19830;SDS011;10076;52.008;4.708;2022-08-21T02:23:43;3.58;;;1.90;;
19830;SDS011;10076;52.008;4.708;2022-08-21T02:26:09;3.53;;;1.98;;
19830;SDS011;10076;52.008;4.708;2022-08-21T02:28:35;4.68;;;2.17;;
19830;SDS011;10076;52.008;4.708;2022-08-21T02:31:02;4.72;;;2.17;;
19830;SDS011;10076;52.008;4.708;2022-08-21T02:33:28;4.53;;;2.38;;
19830;SDS011;10076;52.008;4.708;2022-08-21T02:35:54;2.35;;;2.13;;
19830;SDS011;10076;52.008;4.708;2022-08-21T02:38:26;6.07;;;1.92;;
19830;SDS011;10076;52.008;4.708;2022-08-21T02:40:54;8.13;;;2.53;;
19830;SDS011;10076;52.008;4.708;2022-08-21T02:43:20;3.80;;;1.95;;
19830;SDS011;10076;52.008;4.708;2022-08-21T02:45:47;2.60;;;1.80;;
19830;SDS011;10076;52.008;4.708;2022-08-21T02:48:15;3.20;;;2.47;;
19830;SDS011;10076;52.008;4.708;2022-08-21T02:50:44;4.15;;;1.60;;
19830;SDS011;10076;52.008;4.708;2022-08-21T02:53:18;6.22;;;2.00;;
19830;SDS011;10076;52.008;4.708;2022-08-21T02:55:45;3.38;;;2.08;;
19830;SDS011;10076;52.008;4.708;2022-08-21T02:58:13;3.55;;;2.00;;
19830;SDS011;10076;52.008;4.708;2022-08-21T03:00:41;3.83;;;2.28;;
19830;SDS011;10076;52.008;4.708;2022-08-21T03:03:07;6.43;;;2.00;;
19830;SDS011;10076;52.008;4.708;2022-08-21T03:05:33;3.03;;;2.35;;
19830;SDS011;10076;52.008;4.708;2022-08-21T03:08:01;4.32;;;2.05;;
19830;SDS011;10076;52.008;4.708;2022-08-21T03:10:27;2.70;;;1.65;;
19830;SDS011;10076;52.008;4.708;2022-08-21T03:12:53;5.53;;;1.77;;
19830;SDS011;10076;52.008;4.708;2022-08-21T03:15:20;4.28;;;2.30;;
19830;SDS011;10076;52.008;4.708;2022-08-21T03:17:48;3.03;;;1.73;;
19830;SDS011;10076;52.008;4.708;2022-08-21T03:20:15;3.08;;;1.80;;
19830;SDS011;10076;52.008;4.708;2022-08-21T03:22:42;2.88;;;1.85;;
19830;SDS011;10076;52.008;4.708;2022-08-21T03:25:07;6.45;;;2.63;;
19830;SDS011;10076;52.008;4.708;2022-08-21T03:27:33;7.60;;;2.22;;
19830;SDS011;10076;52.008;4.708;2022-08-21T03:30:00;5.20;;;2.38;;
19830;SDS011;10076;52.008;4.708;2022-08-21T03:32:26;5.10;;;2.33;;
19830;SDS011;10076;52.008;4.708;2022-08-21T03:34:52;5.55;;;1.98;;
19830;SDS011;10076;52.008;4.708;2022-08-21T03:37:17;3.45;;;1.85;;
19830;SDS011;10076;52.008;4.708;2022-08-21T03:39:43;5.80;;;2.15;;
19830;SDS011;10076;52.008;4.708;2022-08-21T03:42:09;5.63;;;2.03;;
19830;SDS011;10076;52.008;4.708;2022-08-21T03:44:35;6.88;;;1.85;;
19830;SDS011;10076;52.008;4.708;2022-08-21T03:47:01;3.22;;;2.35;;
19830;SDS011;10076;52.008;4.708;2022-08-21T03:49:27;3.70;;;1.73;;
19830;SDS011;10076;52.008;4.708;2022-08-21T03:51:52;3.60;;;1.83;;
19830;SDS011;10076;52.008;4.708;2022-08-21T03:54:18;3.50;;;1.48;;
19830;SDS011;10076;52.008;4.708;2022-08-21T03:56:44;2.83;;;1.58;;
19830;SDS011;10076;52.008;4.708;2022-08-21T03:59:09;3.85;;;1.52;;
19830;SDS011;10076;52.008;4.708;2022-08-21T04:01:35;3.60;;;1.60;;
19830;SDS011;10076;52.008;4.708;2022-08-21T04:04:01;1.65;;;1.35;;
19830;SDS011;10076;52.008;4.708;2022-08-21T04:06:26;5.25;;;1.50;;
19830;SDS011;10076;52.008;4.708;2022-08-21T04:08:52;3.35;;;1.45;;
19830;SDS011;10076;52.008;4.708;2022-08-21T04:11:18;4.88;;;1.58;;
19830;SDS011;10076;52.008;4.708;2022-08-21T04:13:44;3.90;;;1.70;;
19830;SDS011;10076;52.008;4.708;2022-08-21T04:16:09;4.40;;;1.65;;
19830;SDS011;10076;52.008;4.708;2022-08-21T04:18:35;2.92;;;1.40;;
19830;SDS011;10076;52.008;4.708;2022-08-21T04:21:00;2.58;;;1.52;;
19830;SDS011;10076;52.008;4.708;2022-08-21T04:23:27;4.55;;;1.67;;
19830;SDS011;10076;52.008;4.708;2022-08-21T04:25:53;2.63;;;1.65;;
19830;SDS011;10076;52.008;4.708;2022-08-21T04:28:20;4.88;;;1.80;;
19830;SDS011;10076;52.008;4.708;2022-08-21T04:30:46;4.93;;;1.88;;
19830;SDS011;10076;52.008;4.708;2022-08-21T04:33:12;2.17;;;1.40;;
19830;SDS011;10076;52.008;4.708;2022-08-21T04:35:37;4.10;;;1.48;;
19830;SDS011;10076;52.008;4.708;2022-08-21T04:38:03;4.03;;;1.58;;
19830;SDS011;10076;52.008;4.708;2022-08-21T04:40:28;7.05;;;1.73;;
19830;SDS011;10076;52.008;4.708;2022-08-21T04:42:55;3.53;;;2.15;;
19830;SDS011;10076;52.008;4.708;2022-08-21T04:45:34;5.07;;;1.77;;
19830;SDS011;10076;52.008;4.708;2022-08-21T04:48:03;4.20;;;1.70;;
19830;SDS011;10076;52.008;4.708;2022-08-21T04:53:01;4.13;;;1.58;;
19830;SDS011;10076;52.008;4.708;2022-08-21T04:55:26;5.32;;;1.77;;
19830;SDS011;10076;52.008;4.708;2022-08-21T04:57:53;5.43;;;1.70;;
19830;SDS011;10076;52.008;4.708;2022-08-21T05:00:20;3.22;;;1.63;;
19830;SDS011;10076;52.008;4.708;2022-08-21T05:02:47;5.70;;;1.60;;
19830;SDS011;10076;52.008;4.708;2022-08-21T05:05:14;7.32;;;2.20;;
19830;SDS011;10076;52.008;4.708;2022-08-21T05:07:41;6.15;;;1.63;;
19830;SDS011;10076;52.008;4.708;2022-08-21T05:10:08;7.38;;;2.10;;
19830;SDS011;10076;52.008;4.708;2022-08-21T05:12:34;5.68;;;2.05;;
19830;SDS011;10076;52.008;4.708;2022-08-21T05:14:59;2.33;;;1.98;;
19830;SDS011;10076;52.008;4.708;2022-08-21T05:17:24;3.35;;;1.65;;
19830;SDS011;10076;52.008;4.708;2022-08-21T05:19:50;5.22;;;2.40;;
19830;SDS011;10076;52.008;4.708;2022-08-21T05:22:19;4.82;;;1.90;;
19830;SDS011;10076;52.008;4.708;2022-08-21T05:24:45;2.83;;;1.83;;
19830;SDS011;10076;52.008;4.708;2022-08-21T05:27:11;4.18;;;2.08;;
19830;SDS011;10076;52.008;4.708;2022-08-21T05:29:36;7.70;;;2.08;;
19830;SDS011;10076;52.008;4.708;2022-08-21T05:32:03;4.53;;;2.03;;
19830;SDS011;10076;52.008;4.708;2022-08-21T05:34:34;3.47;;;1.63;;
19830;SDS011;10076;52.008;4.708;2022-08-21T05:36:59;4.05;;;2.13;;
19830;SDS011;10076;52.008;4.708;2022-08-21T05:39:24;3.35;;;2.08;;
19830;SDS011;10076;52.008;4.708;2022-08-21T05:41:50;4.03;;;2.28;;
19830;SDS011;10076;52.008;4.708;2022-08-21T05:44:15;5.50;;;2.03;;
19830;SDS011;10076;52.008;4.708;2022-08-21T05:46:40;7.03;;;2.33;;
19830;SDS011;10076;52.008;4.708;2022-08-21T05:49:06;6.82;;;2.30;;
19830;SDS011;10076;52.008;4.708;2022-08-21T05:51:31;4.22;;;2.55;;
19830;SDS011;10076;52.008;4.708;2022-08-21T05:53:56;5.22;;;2.00;;
19830;SDS011;10076;52.008;4.708;2022-08-21T05:56:22;4.97;;;2.30;;
19830;SDS011;10076;52.008;4.708;2022-08-21T05:58:47;8.13;;;2.58;;
19830;SDS011;10076;52.008;4.708;2022-08-21T06:01:12;5.22;;;2.25;;
19830;SDS011;10076;52.008;4.708;2022-08-21T06:03:39;5.50;;;2.67;;
19830;SDS011;10076;52.008;4.708;2022-08-21T06:06:06;6.57;;;2.17;;
19830;SDS011;10076;52.008;4.708;2022-08-21T06:08:31;5.20;;;2.50;;
19830;SDS011;10076;52.008;4.708;2022-08-21T06:10:57;7.65;;;2.70;;
19830;SDS011;10076;52.008;4.708;2022-08-21T06:13:25;9.18;;;2.70;;
19830;SDS011;10076;52.008;4.708;2022-08-21T06:15:59;5.43;;;2.40;;
19830;SDS011;10076;52.008;4.708;2022-08-21T06:18:30;5.20;;;2.33;;
19830;SDS011;10076;52.008;4.708;2022-08-21T06:20:55;6.85;;;2.53;;
19830;SDS011;10076;52.008;4.708;2022-08-21T06:23:21;8.95;;;2.60;;
19830;SDS011;10076;52.008;4.708;2022-08-21T06:25:46;11.35;;;2.40;;
19830;SDS011;10076;52.008;4.708;2022-08-21T06:28:11;5.75;;;2.10;;
19830;SDS011;10076;52.008;4.708;2022-08-21T06:30:37;8.18;;;2.45;;
19830;SDS011;10076;52.008;4.708;2022-08-21T06:33:03;8.48;;;2.28;;
19830;SDS011;10076;52.008;4.708;2022-08-21T06:35:31;5.63;;;2.17;;
19830;SDS011;10076;52.008;4.708;2022-08-21T06:37:56;3.42;;;1.70;;
19830;SDS011;10076;52.008;4.708;2022-08-21T06:40:22;8.85;;;2.40;;
19830;SDS011;10076;52.008;4.708;2022-08-21T06:42:48;3.80;;;2.50;;
19830;SDS011;10076;52.008;4.708;2022-08-21T06:45:13;7.68;;;2.42;;
19830;SDS011;10076;52.008;4.708;2022-08-21T06:47:39;5.15;;;2.88;;
19830;SDS011;10076;52.008;4.708;2022-08-21T06:50:04;4.18;;;2.35;;
19830;SDS011;10076;52.008;4.708;2022-08-21T06:52:35;5.57;;;2.45;;
19830;SDS011;10076;52.008;4.708;2022-08-21T06:55:01;3.53;;;2.17;;
19830;SDS011;10076;52.008;4.708;2022-08-21T06:57:27;9.30;;;2.55;;
19830;SDS011;10076;52.008;4.708;2022-08-21T06:59:53;5.35;;;2.30;;
19830;SDS011;10076;52.008;4.708;2022-08-21T07:02:18;5.20;;;2.67;;
19830;SDS011;10076;52.008;4.708;2022-08-21T07:04:43;6.05;;;2.30;;
19830;SDS011;10076;52.008;4.708;2022-08-21T07:07:09;6.75;;;2.50;;
19830;SDS011;10076;52.008;4.708;2022-08-21T07:09:34;5.05;;;2.05;;
19830;SDS011;10076;52.008;4.708;2022-08-21T07:11:59;10.32;;;2.22;;
19830;SDS011;10076;52.008;4.708;2022-08-21T07:14:25;5.85;;;2.50;;
19830;SDS011;10076;52.008;4.708;2022-08-21T07:16:51;5.03;;;2.33;;
19830;SDS011;10076;52.008;4.708;2022-08-21T07:19:16;9.52;;;2.47;;
19830;SDS011;10076;52.008;4.708;2022-08-21T07:21:44;9.50;;;2.28;;
19830;SDS011;10076;52.008;4.708;2022-08-21T07:24:09;2.67;;;1.75;;
19830;SDS011;10076;52.008;4.708;2022-08-21T07:26:35;8.23;;;2.45;;
19830;SDS011;10076;52.008;4.708;2022-08-21T07:29:00;4.60;;;2.15;;
19830;SDS011;10076;52.008;4.708;2022-08-21T07:31:27;2.85;;;2.10;;
19830;SDS011;10076;52.008;4.708;2022-08-21T07:33:53;6.57;;;2.00;;
19830;SDS011;10076;52.008;4.708;2022-08-21T07:36:19;4.97;;;2.42;;
19830;SDS011;10076;52.008;4.708;2022-08-21T07:38:45;4.78;;;2.03;;
19830;SDS011;10076;52.008;4.708;2022-08-21T07:41:16;4.15;;;2.38;;
19830;SDS011;10076;52.008;4.708;2022-08-21T07:43:43;5.32;;;2.40;;
19830;SDS011;10076;52.008;4.708;2022-08-21T07:46:09;3.30;;;2.25;;
19830;SDS011;10076;52.008;4.708;2022-08-21T07:48:35;8.68;;;2.75;;
19830;SDS011;10076;52.008;4.708;2022-08-21T07:51:01;7.35;;;2.22;;
19830;SDS011;10076;52.008;4.708;2022-08-21T07:53:30;5.55;;;1.88;;
19830;SDS011;10076;52.008;4.708;2022-08-21T07:55:58;7.88;;;2.20;;
19830;SDS011;10076;52.008;4.708;2022-08-21T07:58:24;4.22;;;2.13;;
19830;SDS011;10076;52.008;4.708;2022-08-21T08:00:49;6.22;;;2.38;;
19830;SDS011;10076;52.008;4.708;2022-08-21T08:03:14;7.53;;;2.05;;
19830;SDS011;10076;52.008;4.708;2022-08-21T08:05:40;5.35;;;2.20;;
19830;SDS011;10076;52.008;4.708;2022-08-21T08:08:05;8.23;;;2.47;;
19830;SDS011;10076;52.008;4.708;2022-08-21T08:10:30;5.55;;;2.00;;
19830;SDS011;10076;52.008;4.708;2022-08-21T08:12:56;6.97;;;2.00;;
19830;SDS011;10076;52.008;4.708;2022-08-21T08:15:23;5.47;;;2.00;;
19830;SDS011;10076;52.008;4.708;2022-08-21T08:17:49;6.82;;;2.17;;
19830;SDS011;10076;52.008;4.708;2022-08-21T08:20:15;5.07;;;1.98;;
19830;SDS011;10076;52.008;4.708;2022-08-21T08:22:43;4.32;;;2.22;;
19830;SDS011;10076;52.008;4.708;2022-08-21T08:25:10;4.05;;;2.15;;
19830;SDS011;10076;52.008;4.708;2022-08-21T08:27:37;4.28;;;1.75;;
19830;SDS011;10076;52.008;4.708;2022-08-21T08:30:03;4.50;;;1.85;;
19830;SDS011;10076;52.008;4.708;2022-08-21T08:32:30;2.22;;;1.48;;
19830;SDS011;10076;52.008;4.708;2022-08-21T08:34:55;3.92;;;1.75;;
19830;SDS011;10076;52.008;4.708;2022-08-21T08:37:20;5.03;;;1.83;;
19830;SDS011;10076;52.008;4.708;2022-08-21T08:39:46;5.25;;;1.80;;
19830;SDS011;10076;52.008;4.708;2022-08-21T08:42:13;6.70;;;2.08;;
19830;SDS011;10076;52.008;4.708;2022-08-21T08:44:41;3.28;;;1.60;;
19830;SDS011;10076;52.008;4.708;2022-08-21T08:47:08;5.25;;;1.85;;
19830;SDS011;10076;52.008;4.708;2022-08-21T08:55:01;3.75;;;2.08;;
19830;SDS011;10076;52.008;4.708;2022-08-21T08:57:37;6.82;;;1.80;;
19830;SDS011;10076;52.008;4.708;2022-08-21T09:00:08;3.22;;;1.60;;
19830;SDS011;10076;52.008;4.708;2022-08-21T09:02:38;3.95;;;1.67;;
19830;SDS011;10076;52.008;4.708;2022-08-21T09:05:05;4.32;;;1.75;;
19830;SDS011;10076;52.008;4.708;2022-08-21T09:07:47;3.10;;;1.60;;
19830;SDS011;10076;52.008;4.708;2022-08-21T09:10:38;3.45;;;1.15;;
19830;SDS011;10076;52.008;4.708;2022-08-21T09:15:54;2.90;;;1.77;;
19830;SDS011;10076;52.008;4.708;2022-08-21T09:18:44;4.22;;;2.10;;
19830;SDS011;10076;52.008;4.708;2022-08-21T09:21:15;3.35;;;1.55;;
19830;SDS011;10076;52.008;4.708;2022-08-21T09:24:00;2.40;;;1.33;;
19830;SDS011;10076;52.008;4.708;2022-08-21T09:27:18;4.03;;;1.55;;
19830;SDS011;10076;52.008;4.708;2022-08-21T09:29:34;3.53;;;1.52;;
19830;SDS011;10076;52.008;4.708;2022-08-21T09:32:24;4.15;;;1.40;;
19830;SDS011;10076;52.008;4.708;2022-08-21T09:35:01;3.72;;;1.63;;
19830;SDS011;10076;52.008;4.708;2022-08-21T09:40:39;3.95;;;1.90;;
19830;SDS011;10076;52.008;4.708;2022-08-21T09:43:26;5.65;;;2.42;;
19830;SDS011;10076;52.008;4.708;2022-08-21T09:46:06;2.17;;;1.75;;
19830;SDS011;10076;52.008;4.708;2022-08-21T09:48:41;4.80;;;2.15;;
19830;SDS011;10076;52.008;4.708;2022-08-21T09:51:10;3.53;;;1.90;;
19830;SDS011;10076;52.008;4.708;2022-08-21T09:53:45;3.40;;;1.60;;
19830;SDS011;10076;52.008;4.708;2022-08-21T09:56:18;1.67;;;1.58;;
19830;SDS011;10076;52.008;4.708;2022-08-21T09:59:13;4.40;;;2.20;;
19830;SDS011;10076;52.008;4.708;2022-08-21T10:01:48;4.13;;;1.75;;
19830;SDS011;10076;52.008;4.708;2022-08-21T10:04:18;2.88;;;2.10;;
19830;SDS011;10076;52.008;4.708;2022-08-21T10:06:46;5.00;;;1.85;;
19830;SDS011;10076;52.008;4.708;2022-08-21T10:09:13;3.13;;;1.80;;
19830;SDS011;10076;52.008;4.708;2022-08-21T10:11:42;3.20;;;1.77;;
19830;SDS011;10076;52.008;4.708;2022-08-21T10:14:18;1.80;;;1.45;;
19830;SDS011;10076;52.008;4.708;2022-08-21T10:19:34;2.35;;;1.40;;
19830;SDS011;10076;52.008;4.708;2022-08-21T10:25:14;4.47;;;1.50;;
19830;SDS011;10076;52.008;4.708;2022-08-21T10:27:47;3.22;;;1.40;;
19830;SDS011;10076;52.008;4.708;2022-08-21T10:33:13;3.78;;;1.20;;
19830;SDS011;10076;52.008;4.708;2022-08-21T10:35:53;1.40;;;1.30;;
19830;SDS011;10076;52.008;4.708;2022-08-21T10:44:24;3.95;;;1.25;;
19830;SDS011;10076;52.008;4.708;2022-08-21T10:47:26;3.90;;;1.73;;
19830;SDS011;10076;52.008;4.708;2022-08-21T10:55:22;3.08;;;1.80;;
19830;SDS011;10076;52.008;4.708;2022-08-21T10:57:54;2.78;;;1.45;;
19830;SDS011;10076;52.008;4.708;2022-08-21T11:00:26;4.38;;;1.48;;
19830;SDS011;10076;52.008;4.708;2022-08-21T11:02:57;2.63;;;1.20;;
19830;SDS011;10076;52.008;4.708;2022-08-21T11:05:40;1.52;;;1.25;;
19830;SDS011;10076;52.008;4.708;2022-08-21T11:11:10;3.00;;;1.60;;
19830;SDS011;10076;52.008;4.708;2022-08-21T11:13:42;2.45;;;1.30;;
19830;SDS011;10076;52.008;4.708;2022-08-21T11:16:14;2.80;;;1.33;;
19830;SDS011;10076;52.008;4.708;2022-08-21T11:18:53;4.35;;;1.48;;
19830;SDS011;10076;52.008;4.708;2022-08-21T11:21:39;2.80;;;1.20;;
19830;SDS011;10076;52.008;4.708;2022-08-21T11:26:48;2.05;;;1.30;;
19830;SDS011;10076;52.008;4.708;2022-08-21T11:29:23;2.28;;;1.60;;
19830;SDS011;10076;52.008;4.708;2022-08-21T11:31:58;2.63;;;1.33;;
19830;SDS011;10076;52.008;4.708;2022-08-21T11:37:44;3.17;;;1.25;;
19830;SDS011;10076;52.008;4.708;2022-08-21T11:40:24;4.00;;;1.60;;
19830;SDS011;10076;52.008;4.708;2022-08-21T11:43:09;5.13;;;1.45;;
19830;SDS011;10076;52.008;4.708;2022-08-21T11:45:54;1.42;;;1.05;;
19830;SDS011;10076;52.008;4.708;2022-08-21T11:51:10;3.08;;;0.90;;
19830;SDS011;10076;52.008;4.708;2022-08-21T11:53:44;3.47;;;1.42;;
19830;SDS011;10076;52.008;4.708;2022-08-21T11:56:34;1.85;;;1.10;;
19830;SDS011;10076;52.008;4.708;2022-08-21T11:59:11;5.60;;;2.95;;
19830;SDS011;10076;52.008;4.708;2022-08-21T12:01:45;2.53;;;1.33;;
19830;SDS011;10076;52.008;4.708;2022-08-21T12:07:10;1.58;;;1.10;;
19830;SDS011;10076;52.008;4.708;2022-08-21T12:09:51;3.53;;;1.17;;
19830;SDS011;10076;52.008;4.708;2022-08-21T12:12:26;3.15;;;1.23;;
19830;SDS011;10076;52.008;4.708;2022-08-21T12:17:51;2.22;;;1.23;;
19830;SDS011;10076;52.008;4.708;2022-08-21T12:20:18;4.18;;;1.48;;
19830;SDS011;10076;52.008;4.708;2022-08-21T12:23:04;1.20;;;1.10;;
19830;SDS011;10076;52.008;4.708;2022-08-21T12:25:40;3.83;;;1.55;;
19830;SDS011;10076;52.008;4.708;2022-08-21T12:28:10;2.13;;;1.30;;
19830;SDS011;10076;52.008;4.708;2022-08-21T12:30:56;1.95;;;1.10;;
19830;SDS011;10076;52.008;4.708;2022-08-21T12:33:32;2.33;;;1.08;;
19830;SDS011;10076;52.008;4.708;2022-08-21T12:36:03;1.55;;;1.10;;
19830;SDS011;10076;52.008;4.708;2022-08-21T12:38:39;1.75;;;1.10;;
19830;SDS011;10076;52.008;4.708;2022-08-21T12:41:16;4.00;;;1.10;;
19830;SDS011;10076;52.008;4.708;2022-08-21T12:43:49;4.07;;;1.27;;
19830;SDS011;10076;52.008;4.708;2022-08-21T12:46:20;1.88;;;1.10;;
19830;SDS011;10076;52.008;4.708;2022-08-21T12:48:52;5.60;;;1.33;;
19830;SDS011;10076;52.008;4.708;2022-08-21T12:51:26;2.88;;;1.17;;
19830;SDS011;10076;52.008;4.708;2022-08-21T12:53:57;1.13;;;0.93;;
19830;SDS011;10076;52.008;4.708;2022-08-21T12:56:29;2.90;;;1.13;;
19830;SDS011;10076;52.008;4.708;2022-08-21T12:59:00;3.40;;;1.40;;
19830;SDS011;10076;52.008;4.708;2022-08-21T13:03:57;2.08;;;1.17;;
19830;SDS011;10076;52.008;4.708;2022-08-21T13:06:25;2.45;;;1.33;;
19830;SDS011;10076;52.008;4.708;2022-08-21T13:08:56;3.47;;;1.20;;
19830;SDS011;10076;52.008;4.708;2022-08-21T13:11:24;2.97;;;1.40;;
19830;SDS011;10076;52.008;4.708;2022-08-21T13:13:51;1.83;;;0.80;;
19830;SDS011;10076;52.008;4.708;2022-08-21T13:16:19;3.78;;;1.00;;
19830;SDS011;10076;52.008;4.708;2022-08-21T13:19:05;5.15;;;1.88;;
19830;SDS011;10076;52.008;4.708;2022-08-21T13:21:41;3.78;;;1.20;;
19830;SDS011;10076;52.008;4.708;2022-08-21T13:24:18;3.03;;;1.10;;
19830;SDS011;10076;52.008;4.708;2022-08-21T13:26:46;2.30;;;1.08;;
19830;SDS011;10076;52.008;4.708;2022-08-21T13:29:13;3.70;;;1.10;;
19830;SDS011;10076;52.008;4.708;2022-08-21T13:31:45;2.95;;;1.98;;
19830;SDS011;10076;52.008;4.708;2022-08-21T13:34:13;2.33;;;1.10;;
19830;SDS011;10076;52.008;4.708;2022-08-21T13:36:40;2.95;;;1.10;;
19830;SDS011;10076;52.008;4.708;2022-08-21T13:39:08;2.17;;;1.02;;
19830;SDS011;10076;52.008;4.708;2022-08-21T13:41:37;2.05;;;0.93;;
19830;SDS011;10076;52.008;4.708;2022-08-21T13:44:13;3.63;;;1.23;;
19830;SDS011;10076;52.008;4.708;2022-08-21T13:46:43;3.75;;;1.30;;
19830;SDS011;10076;52.008;4.708;2022-08-21T13:49:09;4.28;;;1.20;;
19830;SDS011;10076;52.008;4.708;2022-08-21T13:51:37;3.50;;;1.58;;
19830;SDS011;10076;52.008;4.708;2022-08-21T13:54:14;3.17;;;1.00;;
19830;SDS011;10076;52.008;4.708;2022-08-21T13:56:45;4.68;;;1.67;;
19830;SDS011;10076;52.008;4.708;2022-08-21T13:59:11;1.45;;;1.10;;
19830;SDS011;10076;52.008;4.708;2022-08-21T14:01:49;1.88;;;1.50;;
19830;SDS011;10076;52.008;4.708;2022-08-21T14:04:43;2.25;;;1.20;;
19830;SDS011;10076;52.008;4.708;2022-08-21T14:07:15;4.90;;;1.58;;
19830;SDS011;10076;52.008;4.708;2022-08-21T14:09:44;1.20;;;1.00;;
19830;SDS011;10076;52.008;4.708;2022-08-21T14:12:15;2.33;;;0.98;;
19830;SDS011;10076;52.008;4.708;2022-08-21T14:14:44;1.23;;;1.13;;
19830;SDS011;10076;52.008;4.708;2022-08-21T14:17:12;1.85;;;1.42;;
19830;SDS011;10076;52.008;4.708;2022-08-21T14:19:41;4.03;;;1.95;;
19830;SDS011;10076;52.008;4.708;2022-08-21T14:22:22;2.05;;;1.40;;
19830;SDS011;10076;52.008;4.708;2022-08-21T14:25:04;2.35;;;1.20;;
19830;SDS011;10076;52.008;4.708;2022-08-21T14:27:32;2.38;;;1.23;;
19830;SDS011;10076;52.008;4.708;2022-08-21T14:30:01;1.30;;;1.10;;
19830;SDS011;10076;52.008;4.708;2022-08-21T14:32:37;2.92;;;1.00;;
19830;SDS011;10076;52.008;4.708;2022-08-21T14:35:05;1.80;;;1.10;;
19830;SDS011;10076;52.008;4.708;2022-08-21T14:37:31;2.38;;;1.30;;
19830;SDS011;10076;52.008;4.708;2022-08-21T14:39:57;2.33;;;1.00;;
19830;SDS011;10076;52.008;4.708;2022-08-21T14:42:23;2.42;;;1.35;;
19830;SDS011;10076;52.008;4.708;2022-08-21T14:44:48;4.03;;;1.23;;
19830;SDS011;10076;52.008;4.708;2022-08-21T14:47:14;1.30;;;0.90;;
19830;SDS011;10076;52.008;4.708;2022-08-21T14:49:39;1.95;;;1.02;;
19830;SDS011;10076;52.008;4.708;2022-08-21T14:52:04;3.45;;;1.20;;
19830;SDS011;10076;52.008;4.708;2022-08-21T14:54:30;1.70;;;1.10;;
19830;SDS011;10076;52.008;4.708;2022-08-21T14:56:57;1.50;;;1.02;;
19830;SDS011;10076;52.008;4.708;2022-08-21T14:59:27;1.85;;;1.10;;
19830;SDS011;10076;52.008;4.708;2022-08-21T15:01:52;3.10;;;1.20;;
19830;SDS011;10076;52.008;4.708;2022-08-21T15:04:18;3.45;;;1.25;;
19830;SDS011;10076;52.008;4.708;2022-08-21T15:06:43;2.58;;;1.70;;
19830;SDS011;10076;52.008;4.708;2022-08-21T15:09:09;2.70;;;1.17;;
19830;SDS011;10076;52.008;4.708;2022-08-21T15:11:34;0.95;;;0.80;;
19830;SDS011;10076;52.008;4.708;2022-08-21T15:14:00;1.55;;;1.00;;
19830;SDS011;10076;52.008;4.708;2022-08-21T15:16:27;1.42;;;1.30;;
19830;SDS011;10076;52.008;4.708;2022-08-21T15:18:55;1.70;;;1.00;;
19830;SDS011;10076;52.008;4.708;2022-08-21T15:21:20;1.60;;;1.10;;
19830;SDS011;10076;52.008;4.708;2022-08-21T15:23:46;3.13;;;1.30;;
19830;SDS011;10076;52.008;4.708;2022-08-21T15:26:11;2.40;;;1.10;;
19830;SDS011;10076;52.008;4.708;2022-08-21T15:28:37;2.70;;;1.50;;
19830;SDS011;10076;52.008;4.708;2022-08-21T15:31:03;4.18;;;1.80;;
19830;SDS011;10076;52.008;4.708;2022-08-21T15:33:29;2.53;;;1.38;;
19830;SDS011;10076;52.008;4.708;2022-08-21T15:35:55;2.30;;;1.25;;
19830;SDS011;10076;52.008;4.708;2022-08-21T15:38:21;1.42;;;1.10;;
19830;SDS011;10076;52.008;4.708;2022-08-21T15:40:46;2.65;;;1.38;;
19830;SDS011;10076;52.008;4.708;2022-08-21T15:43:36;2.88;;;1.45;;
19830;SDS011;10076;52.008;4.708;2022-08-21T15:46:02;3.28;;;1.50;;
19830;SDS011;10076;52.008;4.708;2022-08-21T15:48:27;4.85;;;2.42;;
19830;SDS011;10076;52.008;4.708;2022-08-21T15:50:53;1.90;;;1.33;;
19830;SDS011;10076;52.008;4.708;2022-08-21T15:53:19;1.55;;;1.27;;
19830;SDS011;10076;52.008;4.708;2022-08-21T15:55:44;2.75;;;1.50;;